Terminal Aerodrome Forecast
Issued by NWS

Home | Current Version | Previous Version | Text Only | Print | Product List | Glossary On
Versions: 1 2 3 4 5 6 7 8 9 10 11 12 13 14 15 16 17 18 19 20
000
FTUS42 KJAX 282300
TAFCRG
TAF
KCRG 282325Z 2900/2924 01003KT P6SM FEW030
     FM291400 06006KT P6SM FEW025
     FM291800 11005KT P6SM FEW030=

USA.gov is the U.S. government's official web portal to all federal, state and local government web resources and services.